sensor_id;sensor_type;location;lat;lon;timestamp;pressure;altitude;pressure_sealevel;temperature;humidity
73518;BME280;61766;60.318;25.044;2024-03-08T00:00:01;102250.64;;;0.03;41.83
73518;BME280;61766;60.318;25.044;2024-03-08T00:02:26;102248.50;;;-0.17;42.34
73518;BME280;61766;60.318;25.044;2024-03-08T00:04:51;102249.83;;;0.02;42.25
73518;BME280;61766;60.318;25.044;2024-03-08T00:07:17;102249.83;;;-0.06;42.36
73518;BME280;61766;60.318;25.044;2024-03-08T00:09:42;102246.56;;;0.17;42.27
73518;BME280;61766;60.318;25.044;2024-03-08T00:12:07;102243.22;;;-0.28;42.84
73518;BME280;61766;60.318;25.044;2024-03-08T00:14:32;102242.12;;;-0.22;42.95
73518;BME280;61766;60.318;25.044;2024-03-08T00:16:57;102238.06;;;0.09;42.11
73518;BME280;61766;60.318;25.044;2024-03-08T00:19:23;102235.49;;;0.39;42.13
73518;BME280;61766;60.318;25.044;2024-03-08T00:21:48;102233.62;;;0.20;41.69
73518;BME280;61766;60.318;25.044;2024-03-08T00:24:13;102233.87;;;0.43;41.31
73518;BME280;61766;60.318;25.044;2024-03-08T00:26:38;102235.66;;;0.36;41.25
73518;BME280;61766;60.318;25.044;2024-03-08T00:29:04;102231.67;;;0.54;40.98
73518;BME280;61766;60.318;25.044;2024-03-08T00:31:29;102231.27;;;0.64;40.87
73518;BME280;61766;60.318;25.044;2024-03-08T00:33:55;102230.11;;;0.64;40.71
73518;BME280;61766;60.318;25.044;2024-03-08T00:36:20;102228.97;;;0.79;40.90
73518;BME280;61766;60.318;25.044;2024-03-08T00:38:45;102226.50;;;0.56;41.06
73518;BME280;61766;60.318;25.044;2024-03-08T00:41:11;102223.76;;;0.79;40.85
73518;BME280;61766;60.318;25.044;2024-03-08T00:43:37;102223.01;;;0.97;40.37
73518;BME280;61766;60.318;25.044;2024-03-08T00:46:02;102226.81;;;1.00;40.34
73518;BME280;61766;60.318;25.044;2024-03-08T00:48:27;102225.20;;;0.45;41.18
73518;BME280;61766;60.318;25.044;2024-03-08T00:50:52;102227.80;;;0.61;40.48
73518;BME280;61766;60.318;25.044;2024-03-08T00:53:18;102230.98;;;-0.49;43.19
73518;BME280;61766;60.318;25.044;2024-03-08T00:55:43;102227.07;;;-0.10;42.90
73518;BME280;61766;60.318;25.044;2024-03-08T00:58:09;102228.77;;;-0.28;42.99
73518;BME280;61766;60.318;25.044;2024-03-08T01:00:34;102230.57;;;-0.49;43.12
73518;BME280;61766;60.318;25.044;2024-03-08T01:03:00;102226.61;;;0.44;42.36
73518;BME280;61766;60.318;25.044;2024-03-08T01:05:25;102224.56;;;0.46;41.97
73518;BME280;61766;60.318;25.044;2024-03-08T01:07:51;102227.19;;;0.19;42.69
73518;BME280;61766;60.318;25.044;2024-03-08T01:10:16;102228.43;;;-0.01;43.11
73518;BME280;61766;60.318;25.044;2024-03-08T01:12:42;102230.82;;;-0.08;43.37
73518;BME280;61766;60.318;25.044;2024-03-08T01:15:08;102227.59;;;-0.13;43.52
73518;BME280;61766;60.318;25.044;2024-03-08T01:17:32;102226.68;;;0.02;43.01
73518;BME280;61766;60.318;25.044;2024-03-08T01:19:58;102228.71;;;0.22;42.66
73518;BME280;61766;60.318;25.044;2024-03-08T01:22:23;102232.03;;;0.26;42.22
73518;BME280;61766;60.318;25.044;2024-03-08T01:24:48;102234.80;;;0.12;42.31
73518;BME280;61766;60.318;25.044;2024-03-08T01:27:14;102229.78;;;-0.07;42.74
73518;BME280;61766;60.318;25.044;2024-03-08T01:29:39;102232.51;;;0.23;42.60
73518;BME280;61766;60.318;25.044;2024-03-08T01:32:05;102231.60;;;-0.28;43.14
73518;BME280;61766;60.318;25.044;2024-03-08T01:34:30;102228.01;;;0.06;43.53
73518;BME280;61766;60.318;25.044;2024-03-08T01:36:55;102232.61;;;0.07;43.53
73518;BME280;61766;60.318;25.044;2024-03-08T01:39:21;102232.84;;;0.15;43.36
73518;BME280;61766;60.318;25.044;2024-03-08T01:41:46;102232.15;;;0.00;43.27
73518;BME280;61766;60.318;25.044;2024-03-08T01:44:12;102229.03;;;0.48;42.84
73518;BME280;61766;60.318;25.044;2024-03-08T01:46:37;102231.02;;;0.12;42.61
73518;BME280;61766;60.318;25.044;2024-03-08T01:49:03;102229.70;;;0.36;42.54
73518;BME280;61766;60.318;25.044;2024-03-08T01:51:27;102232.12;;;0.18;42.82
73518;BME280;61766;60.318;25.044;2024-03-08T01:53:53;102230.41;;;0.09;42.80
73518;BME280;61766;60.318;25.044;2024-03-08T01:56:19;102224.51;;;0.29;43.00
73518;BME280;61766;60.318;25.044;2024-03-08T01:58:44;102228.35;;;0.27;42.71
73518;BME280;61766;60.318;25.044;2024-03-08T02:01:11;102231.63;;;0.33;42.60
73518;BME280;61766;60.318;25.044;2024-03-08T02:03:34;102228.51;;;0.29;42.66
73518;BME280;61766;60.318;25.044;2024-03-08T02:05:59;102227.98;;;0.54;42.32
73518;BME280;61766;60.318;25.044;2024-03-08T02:08:26;102224.40;;;0.71;41.99
73518;BME280;61766;60.318;25.044;2024-03-08T02:10:51;102230.46;;;0.60;42.15
73518;BME280;61766;60.318;25.044;2024-03-08T02:13:17;102221.74;;;0.51;42.23
73518;BME280;61766;60.318;25.044;2024-03-08T02:15:52;102220.71;;;0.39;42.59
73518;BME280;61766;60.318;25.044;2024-03-08T02:18:08;102222.14;;;0.47;42.56
73518;BME280;61766;60.318;25.044;2024-03-08T02:20:33;102218.39;;;0.24;42.65
73518;BME280;61766;60.318;25.044;2024-03-08T02:22:58;102214.41;;;0.68;42.35
73518;BME280;61766;60.318;25.044;2024-03-08T02:25:23;102211.25;;;0.79;42.21
73518;BME280;61766;60.318;25.044;2024-03-08T02:27:49;102218.87;;;0.96;41.77
73518;BME280;61766;60.318;25.044;2024-03-08T02:30:14;102213.61;;;0.87;41.69
73518;BME280;61766;60.318;25.044;2024-03-08T02:32:39;102213.29;;;0.41;42.29
73518;BME280;61766;60.318;25.044;2024-03-08T02:35:05;102219.40;;;0.70;42.15
73518;BME280;61766;60.318;25.044;2024-03-08T02:37:30;102217.50;;;-0.03;43.48
73518;BME280;61766;60.318;25.044;2024-03-08T02:39:55;102215.11;;;0.04;43.50
73518;BME280;61766;60.318;25.044;2024-03-08T02:42:20;102215.13;;;0.37;43.63
73518;BME280;61766;60.318;25.044;2024-03-08T02:44:46;102218.23;;;0.36;43.90
73518;BME280;61766;60.318;25.044;2024-03-08T02:47:11;102215.17;;;-0.02;43.82
73518;BME280;61766;60.318;25.044;2024-03-08T02:49:37;102218.37;;;0.23;43.82
73518;BME280;61766;60.318;25.044;2024-03-08T02:52:02;102224.78;;;0.02;43.80
73518;BME280;61766;60.318;25.044;2024-03-08T02:54:27;102217.48;;;0.43;43.22
73518;BME280;61766;60.318;25.044;2024-03-08T02:56:53;102222.40;;;0.20;43.59
73518;BME280;61766;60.318;25.044;2024-03-08T02:59:18;102228.93;;;0.65;43.23
73518;BME280;61766;60.318;25.044;2024-03-08T03:01:44;102226.55;;;0.67;43.63
73518;BME280;61766;60.318;25.044;2024-03-08T03:04:09;102224.58;;;0.07;43.63
73518;BME280;61766;60.318;25.044;2024-03-08T03:06:34;102230.79;;;0.27;43.47
73518;BME280;61766;60.318;25.044;2024-03-08T03:08:59;102228.49;;;0.17;43.69
73518;BME280;61766;60.318;25.044;2024-03-08T03:11:25;102225.91;;;0.37;43.75
73518;BME280;61766;60.318;25.044;2024-03-08T03:13:50;102227.07;;;0.19;43.73
73518;BME280;61766;60.318;25.044;2024-03-08T03:16:20;102225.06;;;0.30;43.44
73518;BME280;61766;60.318;25.044;2024-03-08T03:18:42;102226.63;;;0.22;43.58
73518;BME280;61766;60.318;25.044;2024-03-08T03:21:07;102221.21;;;0.33;43.55
73518;BME280;61766;60.318;25.044;2024-03-08T03:23:33;102217.97;;;0.69;42.98
73518;BME280;61766;60.318;25.044;2024-03-08T03:25:58;102225.21;;;0.75;42.92
73518;BME280;61766;60.318;25.044;2024-03-08T03:28:23;102221.53;;;1.08;42.28
73518;BME280;61766;60.318;25.044;2024-03-08T03:30:49;102219.62;;;1.13;42.23
73518;BME280;61766;60.318;25.044;2024-03-08T03:33:14;102225.52;;;1.22;42.11
73518;BME280;61766;60.318;25.044;2024-03-08T03:35:40;102230.35;;;1.27;42.18
73518;BME280;61766;60.318;25.044;2024-03-08T03:38:04;102229.82;;;0.65;42.36
73518;BME280;61766;60.318;25.044;2024-03-08T03:40:29;102232.81;;;0.45;43.11
73518;BME280;61766;60.318;25.044;2024-03-08T03:42:55;102234.19;;;0.71;42.77
73518;BME280;61766;60.318;25.044;2024-03-08T03:45:21;102229.62;;;0.28;43.61
73518;BME280;61766;60.318;25.044;2024-03-08T03:47:46;102237.42;;;0.48;43.14
73518;BME280;61766;60.318;25.044;2024-03-08T03:50:12;102241.64;;;0.04;44.60
73518;BME280;61766;60.318;25.044;2024-03-08T03:52:37;102238.11;;;-0.09;45.18
73518;BME280;61766;60.318;25.044;2024-03-08T03:55:03;102241.99;;;-0.40;45.54
73518;BME280;61766;60.318;25.044;2024-03-08T03:57:28;102244.25;;;-0.22;45.19
73518;BME280;61766;60.318;25.044;2024-03-08T03:59:53;102244.08;;;-0.06;44.63
73518;BME280;61766;60.318;25.044;2024-03-08T04:02:18;102246.41;;;-0.47;45.14
73518;BME280;61766;60.318;25.044;2024-03-08T04:04:44;102246.65;;;-0.58;45.51
73518;BME280;61766;60.318;25.044;2024-03-08T04:07:09;102245.80;;;-0.47;45.01
73518;BME280;61766;60.318;25.044;2024-03-08T04:09:35;102247.60;;;-0.26;44.78
73518;BME280;61766;60.318;25.044;2024-03-08T04:12:00;102250.83;;;-0.02;44.41
73518;BME280;61766;60.318;25.044;2024-03-08T04:14:26;102251.58;;;0.09;44.09
73518;BME280;61766;60.318;25.044;2024-03-08T04:16:51;102253.02;;;-0.02;44.16
73518;BME280;61766;60.318;25.044;2024-03-08T04:19:17;102253.09;;;0.23;43.75
73518;BME280;61766;60.318;25.044;2024-03-08T04:21:42;102255.38;;;-0.04;44.35
73518;BME280;61766;60.318;25.044;2024-03-08T04:24:08;102253.14;;;-0.03;44.07
73518;BME280;61766;60.318;25.044;2024-03-08T04:26:33;102256.14;;;-0.39;44.18
73518;BME280;61766;60.318;25.044;2024-03-08T04:28:58;102257.50;;;-0.25;44.08
73518;BME280;61766;60.318;25.044;2024-03-08T04:31:24;102261.14;;;-0.59;45.50
73518;BME280;61766;60.318;25.044;2024-03-08T04:33:49;102258.54;;;-0.57;45.45
73518;BME280;61766;60.318;25.044;2024-03-08T04:36:14;102262.73;;;-0.58;45.02
73518;BME280;61766;60.318;25.044;2024-03-08T04:38:40;102263.46;;;-1.03;45.35
73518;BME280;61766;60.318;25.044;2024-03-08T04:41:05;102264.60;;;-1.02;45.32
73518;BME280;61766;60.318;25.044;2024-03-08T04:43:31;102266.24;;;-0.35;44.89
73518;BME280;61766;60.318;25.044;2024-03-08T04:45:57;102268.01;;;-0.37;44.59
73518;BME280;61766;60.318;25.044;2024-03-08T04:48:21;102269.95;;;-0.63;44.86
73518;BME280;61766;60.318;25.044;2024-03-08T04:50:46;102265.76;;;-0.44;44.46
73518;BME280;61766;60.318;25.044;2024-03-08T04:53:12;102270.02;;;-0.28;44.42
73518;BME280;61766;60.318;25.044;2024-03-08T04:55:37;102268.64;;;-0.30;44.51
73518;BME280;61766;60.318;25.044;2024-03-08T04:58:03;102275.99;;;-0.85;45.23
73518;BME280;61766;60.318;25.044;2024-03-08T05:00:27;102270.95;;;-0.51;44.66
73518;BME280;61766;60.318;25.044;2024-03-08T05:02:53;102275.30;;;-0.75;44.77
73518;BME280;61766;60.318;25.044;2024-03-08T05:05:19;102275.81;;;-0.62;45.13
73518;BME280;61766;60.318;25.044;2024-03-08T05:07:45;102277.59;;;-0.68;45.73
73518;BME280;61766;60.318;25.044;2024-03-08T05:10:11;102275.61;;;-0.74;45.57
73518;BME280;61766;60.318;25.044;2024-03-08T05:12:37;102280.48;;;-0.62;45.25
73518;BME280;61766;60.318;25.044;2024-03-08T05:15:02;102283.07;;;-0.66;45.46
73518;BME280;61766;60.318;25.044;2024-03-08T05:17:28;102284.36;;;-1.26;45.41
73518;BME280;61766;60.318;25.044;2024-03-08T05:19:53;102288.21;;;-1.08;46.15
73518;BME280;61766;60.318;25.044;2024-03-08T05:22:19;102287.72;;;-0.98;45.58
73518;BME280;61766;60.318;25.044;2024-03-08T05:24:45;102288.49;;;-0.79;45.57
73518;BME280;61766;60.318;25.044;2024-03-08T05:27:10;102292.07;;;-0.92;46.16
73518;BME280;61766;60.318;25.044;2024-03-08T05:29:36;102293.53;;;-0.83;46.22
73518;BME280;61766;60.318;25.044;2024-03-08T05:32:01;102291.48;;;-0.54;45.99
73518;BME280;61766;60.318;25.044;2024-03-08T05:34:27;102288.26;;;-0.79;45.33
73518;BME280;61766;60.318;25.044;2024-03-08T05:36:52;102293.68;;;-0.90;45.65
73518;BME280;61766;60.318;25.044;2024-03-08T05:39:18;102292.80;;;-0.90;45.62
73518;BME280;61766;60.318;25.044;2024-03-08T05:41:43;102293.09;;;-0.32;45.25
73518;BME280;61766;60.318;25.044;2024-03-08T05:44:09;102294.04;;;-0.50;44.81
73518;BME280;61766;60.318;25.044;2024-03-08T05:46:34;102295.07;;;-0.33;44.86
73518;BME280;61766;60.318;25.044;2024-03-08T05:49:00;102294.32;;;-0.20;44.71
73518;BME280;61766;60.318;25.044;2024-03-08T05:51:27;102293.11;;;-0.11;44.51
73518;BME280;61766;60.318;25.044;2024-03-08T05:53:51;102297.18;;;-0.07;44.36
73518;BME280;61766;60.318;25.044;2024-03-08T05:56:16;102304.50;;;-0.71;45.67
73518;BME280;61766;60.318;25.044;2024-03-08T05:58:42;102308.18;;;-0.39;45.27
73518;BME280;61766;60.318;25.044;2024-03-08T06:01:07;102306.70;;;-0.61;45.07
73518;BME280;61766;60.318;25.044;2024-03-08T06:03:32;102310.18;;;-0.16;44.96
73518;BME280;61766;60.318;25.044;2024-03-08T06:05:58;102310.45;;;-1.00;45.53
73518;BME280;61766;60.318;25.044;2024-03-08T06:08:23;102313.46;;;-0.77;46.31
73518;BME280;61766;60.318;25.044;2024-03-08T06:10:48;102312.41;;;-1.04;45.87
73518;BME280;61766;60.318;25.044;2024-03-08T06:13:13;102316.72;;;-1.05;46.79
73518;BME280;61766;60.318;25.044;2024-03-08T06:15:39;102314.59;;;-0.95;46.34
73518;BME280;61766;60.318;25.044;2024-03-08T06:18:05;102311.19;;;-0.50;45.81
73518;BME280;61766;60.318;25.044;2024-03-08T06:20:30;102312.81;;;-0.52;45.63
73518;BME280;61766;60.318;25.044;2024-03-08T06:22:55;102312.14;;;-0.23;44.86
73518;BME280;61766;60.318;25.044;2024-03-08T06:25:21;102315.00;;;0.14;44.37
73518;BME280;61766;60.318;25.044;2024-03-08T06:27:46;102311.54;;;0.08;44.44
73518;BME280;61766;60.318;25.044;2024-03-08T06:30:13;102315.40;;;0.16;44.09
73518;BME280;61766;60.318;25.044;2024-03-08T06:32:38;102316.95;;;0.08;43.87
73518;BME280;61766;60.318;25.044;2024-03-08T06:35:03;102317.33;;;0.38;43.85
73518;BME280;61766;60.318;25.044;2024-03-08T06:37:29;102320.50;;;-0.01;44.40
73518;BME280;61766;60.318;25.044;2024-03-08T06:39:54;102316.66;;;0.07;44.41
73518;BME280;61766;60.318;25.044;2024-03-08T06:42:19;102320.41;;;-0.04;44.61
73518;BME280;61766;60.318;25.044;2024-03-08T06:44:45;102322.30;;;-0.26;45.02
73518;BME280;61766;60.318;25.044;2024-03-08T06:47:10;102321.28;;;-0.04;44.83
73518;BME280;61766;60.318;25.044;2024-03-08T06:49:35;102324.29;;;0.06;44.44
73518;BME280;61766;60.318;25.044;2024-03-08T06:52:01;102330.58;;;0.14;44.50
73518;BME280;61766;60.318;25.044;2024-03-08T06:54:26;102326.81;;;0.08;44.83
73518;BME280;61766;60.318;25.044;2024-03-08T06:56:52;102329.24;;;-0.26;45.00
73518;BME280;61766;60.318;25.044;2024-03-08T06:59:17;102332.68;;;-0.01;44.88
73518;BME280;61766;60.318;25.044;2024-03-08T07:01:43;102333.36;;;-0.02;44.96
73518;BME280;61766;60.318;25.044;2024-03-08T07:04:08;102326.99;;;0.16;44.71
73518;BME280;61766;60.318;25.044;2024-03-08T07:06:34;102333.51;;;-0.28;45.18
73518;BME280;61766;60.318;25.044;2024-03-08T07:08:59;102335.17;;;-0.11;45.57
73518;BME280;61766;60.318;25.044;2024-03-08T07:11:25;102336.04;;;-0.92;46.50
73518;BME280;61766;60.318;25.044;2024-03-08T07:13:50;102332.52;;;-1.13;47.06
73518;BME280;61766;60.318;25.044;2024-03-08T07:16:16;102331.66;;;-0.59;46.12
73518;BME280;61766;60.318;25.044;2024-03-08T07:18:42;102331.46;;;-0.72;45.99
73518;BME280;61766;60.318;25.044;2024-03-08T07:21:07;102329.71;;;-0.45;45.77
73518;BME280;61766;60.318;25.044;2024-03-08T07:23:32;102330.02;;;-0.19;45.63
73518;BME280;61766;60.318;25.044;2024-03-08T07:25:57;102329.04;;;-0.43;45.73
73518;BME280;61766;60.318;25.044;2024-03-08T07:28:23;102328.65;;;-1.21;46.90
73518;BME280;61766;60.318;25.044;2024-03-08T07:30:48;102326.81;;;-0.41;46.03
73518;BME280;61766;60.318;25.044;2024-03-08T07:33:13;102325.43;;;-0.26;45.86
73518;BME280;61766;60.318;25.044;2024-03-08T07:35:38;102325.14;;;-0.47;46.63
73518;BME280;61766;60.318;25.044;2024-03-08T07:38:04;102327.73;;;-0.31;46.22
73518;BME280;61766;60.318;25.044;2024-03-08T07:40:29;102329.98;;;-0.09;45.63
73518;BME280;61766;60.318;25.044;2024-03-08T07:42:54;102327.91;;;-0.43;45.93
73518;BME280;61766;60.318;25.044;2024-03-08T07:45:19;102324.88;;;0.12;45.37
73518;BME280;61766;60.318;25.044;2024-03-08T07:47:45;102329.13;;;-0.04;45.84
73518;BME280;61766;60.318;25.044;2024-03-08T07:50:11;102328.85;;;-0.18;45.99
73518;BME280;61766;60.318;25.044;2024-03-08T07:52:36;102327.33;;;0.18;45.63
73518;BME280;61766;60.318;25.044;2024-03-08T07:55:02;102331.35;;;0.18;45.24
73518;BME280;61766;60.318;25.044;2024-03-08T07:57:28;102334.08;;;0.17;45.12
73518;BME280;61766;60.318;25.044;2024-03-08T07:59:53;102337.17;;;0.29;45.14
73518;BME280;61766;60.318;25.044;2024-03-08T08:02:18;102341.65;;;0.43;44.71
73518;BME280;61766;60.318;25.044;2024-03-08T08:04:43;102338.17;;;0.78;44.14
73518;BME280;61766;60.318;25.044;2024-03-08T08:07:08;102337.07;;;0.84;43.69
73518;BME280;61766;60.318;25.044;2024-03-08T08:09:34;102338.92;;;1.04;43.39
73518;BME280;61766;60.318;25.044;2024-03-08T08:12:00;102337.99;;;0.89;43.01
73518;BME280;61766;60.318;25.044;2024-03-08T08:14:25;102341.22;;;1.30;43.25
73518;BME280;61766;60.318;25.044;2024-03-08T08:16:51;102340.83;;;1.39;42.80
73518;BME280;61766;60.318;25.044;2024-03-08T08:19:16;102343.10;;;0.40;44.09
73518;BME280;61766;60.318;25.044;2024-03-08T08:21:41;102345.57;;;0.73;43.83
73518;BME280;61766;60.318;25.044;2024-03-08T08:24:07;102345.97;;;0.93;43.77
73518;BME280;61766;60.318;25.044;2024-03-08T08:26:32;102342.71;;;0.92;43.59
73518;BME280;61766;60.318;25.044;2024-03-08T08:28:58;102340.28;;;0.98;43.62
73518;BME280;61766;60.318;25.044;2024-03-08T08:31:23;102338.75;;;0.44;44.24
73518;BME280;61766;60.318;25.044;2024-03-08T08:33:49;102335.00;;;0.46;44.46
73518;BME280;61766;60.318;25.044;2024-03-08T08:36:14;102332.92;;;0.52;44.52
73518;BME280;61766;60.318;25.044;2024-03-08T08:38:40;102334.68;;;0.72;44.40
73518;BME280;61766;60.318;25.044;2024-03-08T08:41:05;102338.18;;;0.91;44.13
73518;BME280;61766;60.318;25.044;2024-03-08T08:43:31;102338.96;;;1.06;43.95
73518;BME280;61766;60.318;25.044;2024-03-08T08:45:57;102337.74;;;1.02;43.80
73518;BME280;61766;60.318;25.044;2024-03-08T08:48:22;102338.16;;;1.51;43.25
73518;BME280;61766;60.318;25.044;2024-03-08T08:50:47;102337.88;;;1.23;43.65
73518;BME280;61766;60.318;25.044;2024-03-08T08:53:13;102342.04;;;1.33;43.54
73518;BME280;61766;60.318;25.044;2024-03-08T08:55:39;102344.06;;;1.56;43.05
73518;BME280;61766;60.318;25.044;2024-03-08T08:58:04;102343.02;;;1.28;43.21
73518;BME280;61766;60.318;25.044;2024-03-08T09:00:29;102342.92;;;0.80;43.98
73518;BME280;61766;60.318;25.044;2024-03-08T09:02:55;102346.50;;;1.13;43.74
73518;BME280;61766;60.318;25.044;2024-03-08T09:05:20;102345.55;;;1.44;43.43
73518;BME280;61766;60.318;25.044;2024-03-08T09:07:46;102346.46;;;1.16;43.49
73518;BME280;61766;60.318;25.044;2024-03-08T09:10:11;102349.39;;;1.00;43.49
73518;BME280;61766;60.318;25.044;2024-03-08T09:12:36;102352.78;;;1.53;43.39
73518;BME280;61766;60.318;25.044;2024-03-08T09:15:02;102353.73;;;1.41;43.21
73518;BME280;61766;60.318;25.044;2024-03-08T09:17:27;102360.55;;;1.22;43.31
73518;BME280;61766;60.318;25.044;2024-03-08T09:19:53;102362.23;;;0.91;43.23
73518;BME280;61766;60.318;25.044;2024-03-08T09:22:19;102368.32;;;1.54;43.14
73518;BME280;61766;60.318;25.044;2024-03-08T09:24:44;102370.79;;;1.22;43.12
73518;BME280;61766;60.318;25.044;2024-03-08T09:27:09;102371.71;;;1.00;43.27
73518;BME280;61766;60.318;25.044;2024-03-08T09:29:35;102374.12;;;1.03;43.24
73518;BME280;61766;60.318;25.044;2024-03-08T09:32:00;102377.92;;;1.56;42.90
73518;BME280;61766;60.318;25.044;2024-03-08T09:34:26;102374.73;;;0.53;44.05
73518;BME280;61766;60.318;25.044;2024-03-08T09:36:51;102376.25;;;0.04;45.32
73518;BME280;61766;60.318;25.044;2024-03-08T09:39:16;102375.81;;;0.62;44.79
73518;BME280;61766;60.318;25.044;2024-03-08T09:41:42;102379.06;;;0.95;44.79
73518;BME280;61766;60.318;25.044;2024-03-08T09:44:07;102377.12;;;0.40;44.86
73518;BME280;61766;60.318;25.044;2024-03-08T09:46:33;102373.81;;;0.72;44.98
73518;BME280;61766;60.318;25.044;2024-03-08T09:48:58;102376.88;;;0.51;44.28
73518;BME280;61766;60.318;25.044;2024-03-08T09:51:26;102378.80;;;0.55;44.40
73518;BME280;61766;60.318;25.044;2024-03-08T09:53:48;102378.70;;;0.95;43.97
73518;BME280;61766;60.318;25.044;2024-03-08T09:56:14;102377.39;;;0.71;44.00
73518;BME280;61766;60.318;25.044;2024-03-08T09:58:39;102377.04;;;1.26;43.23
73518;BME280;61766;60.318;25.044;2024-03-08T10:01:05;102377.53;;;1.29;43.30
73518;BME280;61766;60.318;25.044;2024-03-08T10:03:30;102377.53;;;1.38;43.10
73518;BME280;61766;60.318;25.044;2024-03-08T10:05:55;102377.01;;;1.62;43.32
73518;BME280;61766;60.318;25.044;2024-03-08T10:08:21;102372.84;;;1.72;43.12
73518;BME280;61766;60.318;25.044;2024-03-08T10:10:46;102371.97;;;1.70;43.27
73518;BME280;61766;60.318;25.044;2024-03-08T10:13:12;102370.43;;;1.63;43.35
73518;BME280;61766;60.318;25.044;2024-03-08T10:15:37;102366.64;;;1.67;43.28
73518;BME280;61766;60.318;25.044;2024-03-08T10:18:02;102361.85;;;1.87;42.93
73518;BME280;61766;60.318;25.044;2024-03-08T10:20:27;102366.04;;;1.53;42.89
73518;BME280;61766;60.318;25.044;2024-03-08T10:22:52;102366.18;;;1.21;43.02
73518;BME280;61766;60.318;25.044;2024-03-08T10:25:18;102367.90;;;1.70;43.03
73518;BME280;61766;60.318;25.044;2024-03-08T10:27:43;102368.49;;;1.80;43.04
73518;BME280;61766;60.318;25.044;2024-03-08T10:30:10;102372.70;;;0.72;43.33
73518;BME280;61766;60.318;25.044;2024-03-08T10:32:33;102367.79;;;1.43;42.72
73518;BME280;61766;60.318;25.044;2024-03-08T10:34:59;102370.01;;;1.33;43.24
73518;BME280;61766;60.318;25.044;2024-03-08T10:37:25;102367.26;;;1.68;42.97
73518;BME280;61766;60.318;25.044;2024-03-08T10:39:57;102368.10;;;1.65;42.48
73518;BME280;61766;60.318;25.044;2024-03-08T10:42:17;102367.31;;;1.80;42.78
73518;BME280;61766;60.318;25.044;2024-03-08T10:44:49;102369.00;;;1.84;42.95
73518;BME280;61766;60.318;25.044;2024-03-08T10:47:08;102366.87;;;1.86;42.17
73518;BME280;61766;60.318;25.044;2024-03-08T10:49:37;102362.31;;;1.83;41.92
73518;BME280;61766;60.318;25.044;2024-03-08T10:51:56;102364.51;;;1.66;41.90
73518;BME280;61766;60.318;25.044;2024-03-08T10:54:22;102365.73;;;1.54;42.18
73518;BME280;61766;60.318;25.044;2024-03-08T10:56:46;102368.27;;;1.39;43.12
73518;BME280;61766;60.318;25.044;2024-03-08T10:59:11;102367.85;;;1.53;43.12
73518;BME280;61766;60.318;25.044;2024-03-08T11:01:36;102369.62;;;1.70;42.71
73518;BME280;61766;60.318;25.044;2024-03-08T11:04:03;102371.24;;;1.17;43.05
73518;BME280;61766;60.318;25.044;2024-03-08T11:08:52;102368.43;;;2.08;42.07
73518;BME280;61766;60.318;25.044;2024-03-08T11:11:28;102368.85;;;1.97;42.11
73518;BME280;61766;60.318;25.044;2024-03-08T11:13:44;102373.74;;;1.62;42.36
73518;BME280;61766;60.318;25.044;2024-03-08T11:16:10;102367.61;;;1.81;41.99
73518;BME280;61766;60.318;25.044;2024-03-08T11:18:35;102370.89;;;2.00;41.77
73518;BME280;61766;60.318;25.044;2024-03-08T11:20:59;102375.68;;;2.02;41.58
73518;BME280;61766;60.318;25.044;2024-03-08T11:23:26;102376.90;;;1.25;41.76
73518;BME280;61766;60.318;25.044;2024-03-08T11:25:49;102374.30;;;1.81;41.39
73518;BME280;61766;60.318;25.044;2024-03-08T11:28:17;102372.64;;;1.58;41.88
73518;BME280;61766;60.318;25.044;2024-03-08T11:30:40;102369.74;;;1.76;41.42
73518;BME280;61766;60.318;25.044;2024-03-08T11:33:05;102367.90;;;2.14;41.56
73518;BME280;61766;60.318;25.044;2024-03-08T11:35:31;102374.92;;;0.85;42.65
73518;BME280;61766;60.318;25.044;2024-03-08T11:37:57;102371.24;;;1.38;42.25
73518;BME280;61766;60.318;25.044;2024-03-08T11:40:21;102372.87;;;1.30;41.91
73518;BME280;61766;60.318;25.044;2024-03-08T11:42:48;102371.26;;;1.16;41.76
73518;BME280;61766;60.318;25.044;2024-03-08T11:45:12;102371.35;;;1.47;41.77
73518;BME280;61766;60.318;25.044;2024-03-08T11:47:38;102370.97;;;1.86;41.32
73518;BME280;61766;60.318;25.044;2024-03-08T11:50:02;102365.68;;;2.03;40.71
73518;BME280;61766;60.318;25.044;2024-03-08T11:52:27;102363.57;;;2.18;41.07
73518;BME280;61766;60.318;25.044;2024-03-08T11:54:55;102365.68;;;1.89;40.96
73518;BME280;61766;60.318;25.044;2024-03-08T11:57:17;102373.28;;;1.78;41.68
73518;BME280;61766;60.318;25.044;2024-03-08T12:02:09;102369.11;;;2.36;40.04
73518;BME280;61766;60.318;25.044;2024-03-08T12:04:33;102374.53;;;1.95;40.61
73518;BME280;61766;60.318;25.044;2024-03-08T12:07:00;102375.35;;;1.70;41.02
73518;BME280;61766;60.318;25.044;2024-03-08T12:09:24;102377.58;;;2.04;41.22
73518;BME280;61766;60.318;25.044;2024-03-08T12:11:50;102381.71;;;1.54;41.48
73518;BME280;61766;60.318;25.044;2024-03-08T12:14:14;102382.68;;;0.99;41.75
73518;BME280;61766;60.318;25.044;2024-03-08T12:16:40;102384.57;;;1.57;41.14
73518;BME280;61766;60.318;25.044;2024-03-08T12:19:06;102382.50;;;1.61;41.43
73518;BME280;61766;60.318;25.044;2024-03-08T12:21:31;102382.91;;;0.97;42.12
73518;BME280;61766;60.318;25.044;2024-03-08T12:24:02;102386.93;;;1.50;42.31
73518;BME280;61766;60.318;25.044;2024-03-08T12:26:23;102390.01;;;1.59;42.02
73518;BME280;61766;60.318;25.044;2024-03-08T12:28:46;102389.43;;;1.66;41.63
73518;BME280;61766;60.318;25.044;2024-03-08T12:31:13;102386.06;;;1.60;41.56
73518;BME280;61766;60.318;25.044;2024-03-08T12:33:37;102386.79;;;1.58;41.27
73518;BME280;61766;60.318;25.044;2024-03-08T12:36:02;102386.81;;;1.58;41.27
73518;BME280;61766;60.318;25.044;2024-03-08T12:38:31;102387.04;;;1.79;41.51
73518;BME280;61766;60.318;25.044;2024-03-08T12:40:55;102389.50;;;1.78;41.34